sensor_id;sensor_type;location;lat;lon;timestamp;pressure;altitude;pressure_sealevel;temperature
24740;BMP280;45234;48.148;17.128;2023-04-07T00:00:39;99948.91;;;6.84
24740;BMP280;45234;48.148;17.128;2023-04-07T00:03:06;99957.06;;;6.87
24740;BMP280;45234;48.148;17.128;2023-04-07T00:05:33;99944.34;;;6.94
24740;BMP280;45234;48.148;17.128;2023-04-07T00:08:00;99947.38;;;6.97
24740;BMP280;45234;48.148;17.128;2023-04-07T00:10:27;99946.72;;;7.04
24740;BMP280;45234;48.148;17.128;2023-04-07T00:12:54;99954.56;;;7.10
24740;BMP280;45234;48.148;17.128;2023-04-07T00:15:21;99948.00;;;6.99
24740;BMP280;45234;48.148;17.128;2023-04-07T00:17:48;99953.81;;;7.02
24740;BMP280;45234;48.148;17.128;2023-04-07T00:20:16;99944.91;;;7.12
24740;BMP280;45234;48.148;17.128;2023-04-07T00:22:42;99945.38;;;7.16
24740;BMP280;45234;48.148;17.128;2023-04-07T00:25:19;99942.66;;;7.09
24740;BMP280;45234;48.148;17.128;2023-04-07T00:27:45;99942.84;;;7.08
24740;BMP280;45234;48.148;17.128;2023-04-07T00:30:12;99944.44;;;7.09
24740;BMP280;45234;48.148;17.128;2023-04-07T00:32:41;99943.13;;;7.13
24740;BMP280;45234;48.148;17.128;2023-04-07T00:35:11;99940.03;;;7.17
24740;BMP280;45234;48.148;17.128;2023-04-07T00:37:38;99938.09;;;7.19
24740;BMP280;45234;48.148;17.128;2023-04-07T00:40:06;99939.31;;;7.31
24740;BMP280;45234;48.148;17.128;2023-04-07T00:42:33;99937.25;;;7.27
24740;BMP280;45234;48.148;17.128;2023-04-07T00:45:01;99929.19;;;7.22
24740;BMP280;45234;48.148;17.128;2023-04-07T00:47:29;99936.00;;;7.23
24740;BMP280;45234;48.148;17.128;2023-04-07T00:49:56;99932.78;;;7.21
24740;BMP280;45234;48.148;17.128;2023-04-07T00:52:24;99927.63;;;7.21
24740;BMP280;45234;48.148;17.128;2023-04-07T00:54:54;99927.38;;;7.08
24740;BMP280;45234;48.148;17.128;2023-04-07T00:57:22;99932.53;;;7.08
24740;BMP280;45234;48.148;17.128;2023-04-07T00:59:51;99927.16;;;7.17
24740;BMP280;45234;48.148;17.128;2023-04-07T01:13:38;99921.97;;;6.86
24740;BMP280;45234;48.148;17.128;2023-04-07T01:19:37;99915.25;;;6.77
24740;BMP280;45234;48.148;17.128;2023-04-07T01:22:23;99914.00;;;6.73
24740;BMP280;45234;48.148;17.128;2023-04-07T01:30:15;99913.69;;;6.68
24740;BMP280;45234;48.148;17.128;2023-04-07T01:32:46;99913.19;;;6.73
24740;BMP280;45234;48.148;17.128;2023-04-07T01:35:16;99920.94;;;6.64
24740;BMP280;45234;48.148;17.128;2023-04-07T01:37:44;99913.66;;;6.76
24740;BMP280;45234;48.148;17.128;2023-04-07T01:40:14;99913.84;;;6.66
24740;BMP280;45234;48.148;17.128;2023-04-07T01:42:42;99917.56;;;6.64
24740;BMP280;45234;48.148;17.128;2023-04-07T01:45:11;99914.84;;;6.57
24740;BMP280;45234;48.148;17.128;2023-04-07T01:47:38;99916.59;;;6.65
24740;BMP280;45234;48.148;17.128;2023-04-07T01:50:08;99916.94;;;6.62
24740;BMP280;45234;48.148;17.128;2023-04-07T01:52:35;99912.91;;;6.59
24740;BMP280;45234;48.148;17.128;2023-04-07T01:55:04;99911.84;;;6.46
24740;BMP280;45234;48.148;17.128;2023-04-07T01:57:35;99916.63;;;6.57
24740;BMP280;45234;48.148;17.128;2023-04-07T02:00:10;99912.31;;;6.49
24740;BMP280;45234;48.148;17.128;2023-04-07T02:02:56;99913.25;;;6.56
24740;BMP280;45234;48.148;17.128;2023-04-07T02:05:27;99916.97;;;6.54
24740;BMP280;45234;48.148;17.128;2023-04-07T02:08:00;99916.31;;;6.52
24740;BMP280;45234;48.148;17.128;2023-04-07T02:10:34;99917.25;;;6.59
24740;BMP280;45234;48.148;17.128;2023-04-07T02:13:04;99911.47;;;6.57
24740;BMP280;45234;48.148;17.128;2023-04-07T02:15:31;99909.88;;;6.48
24740;BMP280;45234;48.148;17.128;2023-04-07T02:18:00;99904.56;;;6.57
24740;BMP280;45234;48.148;17.128;2023-04-07T02:20:28;99910.22;;;6.45
24740;BMP280;45234;48.148;17.128;2023-04-07T02:22:56;99907.28;;;6.48
24740;BMP280;45234;48.148;17.128;2023-04-07T02:25:27;99910.84;;;6.47
24740;BMP280;45234;48.148;17.128;2023-04-07T02:27:55;99898.03;;;6.39
24740;BMP280;45234;48.148;17.128;2023-04-07T02:30:23;99911.97;;;6.52
24740;BMP280;45234;48.148;17.128;2023-04-07T02:32:50;99902.84;;;6.33
24740;BMP280;45234;48.148;17.128;2023-04-07T02:35:19;99903.19;;;6.30
24740;BMP280;45234;48.148;17.128;2023-04-07T02:37:48;99896.72;;;6.34
24740;BMP280;45234;48.148;17.128;2023-04-07T02:40:15;99890.44;;;6.45
24740;BMP280;45234;48.148;17.128;2023-04-07T02:42:42;99898.59;;;6.57
24740;BMP280;45234;48.148;17.128;2023-04-07T02:45:10;99896.41;;;6.46
24740;BMP280;45234;48.148;17.128;2023-04-07T02:47:37;99888.84;;;6.44
24740;BMP280;45234;48.148;17.128;2023-04-07T02:50:05;99892.69;;;6.32
24740;BMP280;45234;48.148;17.128;2023-04-07T02:52:34;99897.22;;;6.22
24740;BMP280;45234;48.148;17.128;2023-04-07T02:55:06;99875.84;;;6.29
24740;BMP280;45234;48.148;17.128;2023-04-07T02:57:33;99886.78;;;6.23
24740;BMP280;45234;48.148;17.128;2023-04-07T03:00:05;99895.19;;;6.09
24740;BMP280;45234;48.148;17.128;2023-04-07T03:02:52;99895.34;;;5.99
24740;BMP280;45234;48.148;17.128;2023-04-07T03:05:19;99893.91;;;5.97
24740;BMP280;45234;48.148;17.128;2023-04-07T03:07:46;99890.66;;;5.95
24740;BMP280;45234;48.148;17.128;2023-04-07T03:10:12;99883.78;;;5.87
24740;BMP280;45234;48.148;17.128;2023-04-07T03:12:39;99887.34;;;5.86
24740;BMP280;45234;48.148;17.128;2023-04-07T03:15:06;99887.97;;;5.88
24740;BMP280;45234;48.148;17.128;2023-04-07T03:17:35;99890.03;;;5.93
24740;BMP280;45234;48.148;17.128;2023-04-07T03:20:03;99892.44;;;5.78
24740;BMP280;45234;48.148;17.128;2023-04-07T03:22:33;99892.44;;;5.78
24740;BMP280;45234;48.148;17.128;2023-04-07T03:25:00;99882.66;;;5.73
24740;BMP280;45234;48.148;17.128;2023-04-07T03:27:28;99885.38;;;5.64
24740;BMP280;45234;48.148;17.128;2023-04-07T03:29:55;99888.75;;;5.64
24740;BMP280;45234;48.148;17.128;2023-04-07T03:32:31;99892.47;;;5.54
24740;BMP280;45234;48.148;17.128;2023-04-07T03:34:58;99889.22;;;5.60
24740;BMP280;45234;48.148;17.128;2023-04-07T03:37:24;99878.13;;;5.59
24740;BMP280;45234;48.148;17.128;2023-04-07T03:39:53;99883.13;;;5.61
24740;BMP280;45234;48.148;17.128;2023-04-07T03:42:33;99871.25;;;5.68
24740;BMP280;45234;48.148;17.128;2023-04-07T03:45:02;99877.16;;;5.52
24740;BMP280;45234;48.148;17.128;2023-04-07T03:47:32;99874.16;;;5.57
24740;BMP280;45234;48.148;17.128;2023-04-07T03:50:01;99887.81;;;5.65
24740;BMP280;45234;48.148;17.128;2023-04-07T03:52:32;99876.22;;;5.69
24740;BMP280;45234;48.148;17.128;2023-04-07T03:55:08;99876.38;;;5.76
24740;BMP280;45234;48.148;17.128;2023-04-07T03:57:35;99876.22;;;5.78
24740;BMP280;45234;48.148;17.128;2023-04-07T04:00:03;99871.22;;;5.84
24740;BMP280;45234;48.148;17.128;2023-04-07T04:02:42;99867.03;;;5.91
24740;BMP280;45234;48.148;17.128;2023-04-07T04:05:13;99864.00;;;5.80
24740;BMP280;45234;48.148;17.128;2023-04-07T04:07:41;99858.53;;;5.83
24740;BMP280;45234;48.148;17.128;2023-04-07T04:10:09;99863.38;;;5.86
24740;BMP280;45234;48.148;17.128;2023-04-07T04:12:42;99864.19;;;5.86
24740;BMP280;45234;48.148;17.128;2023-04-07T04:15:12;99875.56;;;5.92
24740;BMP280;45234;48.148;17.128;2023-04-07T04:17:39;99865.44;;;5.90
24740;BMP280;45234;48.148;17.128;2023-04-07T04:20:07;99872.66;;;5.95
24740;BMP280;45234;48.148;17.128;2023-04-07T04:22:50;99868.81;;;5.83
24740;BMP280;45234;48.148;17.128;2023-04-07T04:25:17;99866.75;;;5.78
24740;BMP280;45234;48.148;17.128;2023-04-07T04:27:52;99868.53;;;5.86
24740;BMP280;45234;48.148;17.128;2023-04-07T04:30:22;99865.28;;;5.84
24740;BMP280;45234;48.148;17.128;2023-04-07T04:32:52;99870.78;;;5.89
24740;BMP280;45234;48.148;17.128;2023-04-07T04:35:30;99873.66;;;5.86
24740;BMP280;45234;48.148;17.128;2023-04-07T04:38:05;99863.03;;;5.81
24740;BMP280;45234;48.148;17.128;2023-04-07T04:40:33;99868.19;;;5.89
24740;BMP280;45234;48.148;17.128;2023-04-07T04:43:01;99869.44;;;5.93
24740;BMP280;45234;48.148;17.128;2023-04-07T04:45:34;99874.91;;;5.90
24740;BMP280;45234;48.148;17.128;2023-04-07T04:48:03;99875.75;;;5.98
24740;BMP280;45234;48.148;17.128;2023-04-07T04:50:29;99874.16;;;5.89
24740;BMP280;45234;48.148;17.128;2023-04-07T04:52:57;99866.94;;;5.85
24740;BMP280;45234;48.148;17.128;2023-04-07T04:55:23;99882.84;;;5.88
24740;BMP280;45234;48.148;17.128;2023-04-07T04:57:55;99876.06;;;5.95
24740;BMP280;45234;48.148;17.128;2023-04-07T05:00:32;99881.38;;;5.78
24740;BMP280;45234;48.148;17.128;2023-04-07T05:03:02;99874.44;;;5.78
24740;BMP280;45234;48.148;17.128;2023-04-07T05:05:35;99883.50;;;5.74
24740;BMP280;45234;48.148;17.128;2023-04-07T05:08:03;99875.91;;;5.56
24740;BMP280;45234;48.148;17.128;2023-04-07T05:10:37;99870.75;;;5.48
24740;BMP280;45234;48.148;17.128;2023-04-07T05:13:10;99863.50;;;5.60
24740;BMP280;45234;48.148;17.128;2023-04-07T05:15:39;99873.00;;;5.76
24740;BMP280;45234;48.148;17.128;2023-04-07T05:18:09;99874.94;;;5.82
24740;BMP280;45234;48.148;17.128;2023-04-07T05:20:36;99881.06;;;5.97
24740;BMP280;45234;48.148;17.128;2023-04-07T05:23:03;99890.66;;;5.95
24740;BMP280;45234;48.148;17.128;2023-04-07T05:25:32;99891.00;;;5.84
24740;BMP280;45234;48.148;17.128;2023-04-07T05:28:02;99894.19;;;5.61
24740;BMP280;45234;48.148;17.128;2023-04-07T05:30:29;99892.47;;;5.70
24740;BMP280;45234;48.148;17.128;2023-04-07T05:32:57;99888.25;;;5.61
24740;BMP280;45234;48.148;17.128;2023-04-07T05:35:50;99891.66;;;5.53
24740;BMP280;45234;48.148;17.128;2023-04-07T05:38:17;99895.19;;;5.68
24740;BMP280;45234;48.148;17.128;2023-04-07T05:40:45;99893.56;;;5.59
24740;BMP280;45234;48.148;17.128;2023-04-07T05:43:20;99897.75;;;5.68
24740;BMP280;45234;48.148;17.128;2023-04-07T05:45:48;99898.72;;;5.84
24740;BMP280;45234;48.148;17.128;2023-04-07T05:48:15;99908.19;;;5.91
24740;BMP280;45234;48.148;17.128;2023-04-07T05:50:44;99906.59;;;6.07
24740;BMP280;45234;48.148;17.128;2023-04-07T05:53:15;99911.88;;;6.05
24740;BMP280;45234;48.148;17.128;2023-04-07T05:55:42;99908.34;;;6.14
24740;BMP280;45234;48.148;17.128;2023-04-07T05:58:13;99903.22;;;6.14
24740;BMP280;45234;48.148;17.128;2023-04-07T06:00:46;99916.69;;;6.24
24740;BMP280;45234;48.148;17.128;2023-04-07T06:03:16;99907.53;;;6.30
24740;BMP280;45234;48.148;17.128;2023-04-07T06:05:59;99908.25;;;6.47
24740;BMP280;45234;48.148;17.128;2023-04-07T06:08:26;99913.09;;;6.50
24740;BMP280;45234;48.148;17.128;2023-04-07T06:10:53;99909.28;;;6.38
24740;BMP280;45234;48.148;17.128;2023-04-07T06:13:20;99903.47;;;6.44
24740;BMP280;45234;48.148;17.128;2023-04-07T06:15:47;99907.59;;;6.61
24740;BMP280;45234;48.148;17.128;2023-04-07T06:18:14;99902.09;;;6.72
24740;BMP280;45234;48.148;17.128;2023-04-07T06:20:41;99894.78;;;6.92
24740;BMP280;45234;48.148;17.128;2023-04-07T06:23:08;99891.06;;;6.94
24740;BMP280;45234;48.148;17.128;2023-04-07T06:25:35;99899.03;;;6.99
24740;BMP280;45234;48.148;17.128;2023-04-07T06:28:01;99895.03;;;7.05
24740;BMP280;45234;48.148;17.128;2023-04-07T06:30:29;99900.44;;;7.10
24740;BMP280;45234;48.148;17.128;2023-04-07T06:32:56;99896.44;;;7.08
24740;BMP280;45234;48.148;17.128;2023-04-07T06:35:24;99907.69;;;7.38
24740;BMP280;45234;48.148;17.128;2023-04-07T06:37:52;99904.81;;;7.10
24740;BMP280;45234;48.148;17.128;2023-04-07T06:40:20;99907.44;;;7.02
24740;BMP280;45234;48.148;17.128;2023-04-07T06:42:47;99903.75;;;6.96
24740;BMP280;45234;48.148;17.128;2023-04-07T06:45:21;99905.75;;;6.78
24740;BMP280;45234;48.148;17.128;2023-04-07T06:47:48;99900.06;;;6.90
24740;BMP280;45234;48.148;17.128;2023-04-07T06:50:15;99897.56;;;6.82
24740;BMP280;45234;48.148;17.128;2023-04-07T06:52:46;99897.25;;;6.69
24740;BMP280;45234;48.148;17.128;2023-04-07T06:55:13;99907.56;;;6.69
24740;BMP280;45234;48.148;17.128;2023-04-07T06:57:40;99895.78;;;6.83
24740;BMP280;45234;48.148;17.128;2023-04-07T07:00:07;99892.78;;;6.63
24740;BMP280;45234;48.148;17.128;2023-04-07T07:02:34;99888.50;;;6.86
24740;BMP280;45234;48.148;17.128;2023-04-07T07:05:01;99898.53;;;6.73
24740;BMP280;45234;48.148;17.128;2023-04-07T07:07:30;99903.34;;;6.84
24740;BMP280;45234;48.148;17.128;2023-04-07T07:09:57;99914.50;;;7.08
24740;BMP280;45234;48.148;17.128;2023-04-07T07:12:24;99901.13;;;7.04
24740;BMP280;45234;48.148;17.128;2023-04-07T07:14:51;99908.16;;;7.18
24740;BMP280;45234;48.148;17.128;2023-04-07T07:17:18;99918.28;;;7.20
24740;BMP280;45234;48.148;17.128;2023-04-07T07:19:45;99913.28;;;6.95
24740;BMP280;45234;48.148;17.128;2023-04-07T07:22:11;99917.78;;;6.85
24740;BMP280;45234;48.148;17.128;2023-04-07T07:24:38;99925.34;;;6.87
24740;BMP280;45234;48.148;17.128;2023-04-07T07:27:05;99919.81;;;7.06
24740;BMP280;45234;48.148;17.128;2023-04-07T07:29:32;99927.97;;;7.18
24740;BMP280;45234;48.148;17.128;2023-04-07T07:31:59;99932.53;;;6.99
24740;BMP280;45234;48.148;17.128;2023-04-07T07:34:25;99937.06;;;7.06
24740;BMP280;45234;48.148;17.128;2023-04-07T07:36:52;99946.09;;;7.02
24740;BMP280;45234;48.148;17.128;2023-04-07T07:39:19;99941.66;;;7.18
24740;BMP280;45234;48.148;17.128;2023-04-07T07:41:46;99944.66;;;7.30
24740;BMP280;45234;48.148;17.128;2023-04-07T07:44:12;99939.19;;;7.25
24740;BMP280;45234;48.148;17.128;2023-04-07T07:46:39;99944.06;;;7.12
24740;BMP280;45234;48.148;17.128;2023-04-07T07:49:06;99954.38;;;7.12
24740;BMP280;45234;48.148;17.128;2023-04-07T07:51:33;99951.53;;;7.07
24740;BMP280;45234;48.148;17.128;2023-04-07T07:54:00;99954.53;;;6.79
24740;BMP280;45234;48.148;17.128;2023-04-07T07:56:27;99957.34;;;6.61
24740;BMP280;45234;48.148;17.128;2023-04-07T07:58:54;99953.13;;;6.68
24740;BMP280;45234;48.148;17.128;2023-04-07T08:01:23;99963.56;;;6.83
24740;BMP280;45234;48.148;17.128;2023-04-07T08:03:50;99964.56;;;7.13
24740;BMP280;45234;48.148;17.128;2023-04-07T08:06:18;99966.00;;;7.16
24740;BMP280;45234;48.148;17.128;2023-04-07T08:08:45;99968.19;;;6.96
24740;BMP280;45234;48.148;17.128;2023-04-07T08:11:11;99961.09;;;6.90
24740;BMP280;45234;48.148;17.128;2023-04-07T08:13:38;99960.94;;;6.91
24740;BMP280;45234;48.148;17.128;2023-04-07T08:16:05;99957.66;;;6.97
24740;BMP280;45234;48.148;17.128;2023-04-07T08:18:32;99946.66;;;7.12
24740;BMP280;45234;48.148;17.128;2023-04-07T08:20:59;99957.63;;;7.14
24740;BMP280;45234;48.148;17.128;2023-04-07T08:23:26;99941.47;;;7.20
24740;BMP280;45234;48.148;17.128;2023-04-07T08:25:53;99938.84;;;7.28
24740;BMP280;45234;48.148;17.128;2023-04-07T08:28:20;99940.25;;;7.39
24740;BMP280;45234;48.148;17.128;2023-04-07T08:30:48;99952.06;;;7.56
24740;BMP280;45234;48.148;17.128;2023-04-07T08:33:16;99948.59;;;7.63
24740;BMP280;45234;48.148;17.128;2023-04-07T08:35:43;99958.47;;;7.83
24740;BMP280;45234;48.148;17.128;2023-04-07T08:38:10;99948.13;;;7.83
24740;BMP280;45234;48.148;17.128;2023-04-07T08:40:37;99949.06;;;7.90
24740;BMP280;45234;48.148;17.128;2023-04-07T08:43:08;99950.47;;;7.78
24740;BMP280;45234;48.148;17.128;2023-04-07T08:45:38;99954.34;;;7.74
24740;BMP280;45234;48.148;17.128;2023-04-07T08:48:15;99958.63;;;7.67
24740;BMP280;45234;48.148;17.128;2023-04-07T08:50:44;99964.25;;;7.62
24740;BMP280;45234;48.148;17.128;2023-04-07T08:53:13;99962.41;;;7.71
24740;BMP280;45234;48.148;17.128;2023-04-07T08:55:43;99969.53;;;7.69
24740;BMP280;45234;48.148;17.128;2023-04-07T08:58:11;99962.81;;;7.59
24740;BMP280;45234;48.148;17.128;2023-04-07T09:00:41;99958.81;;;7.57
24740;BMP280;45234;48.148;17.128;2023-04-07T09:03:11;99961.38;;;7.57
24740;BMP280;45234;48.148;17.128;2023-04-07T09:05:39;99964.88;;;7.41
24740;BMP280;45234;48.148;17.128;2023-04-07T09:08:06;99962.38;;;7.33
24740;BMP280;45234;48.148;17.128;2023-04-07T09:10:33;99962.38;;;7.33
24740;BMP280;45234;48.148;17.128;2023-04-07T09:13:00;99969.81;;;7.51
24740;BMP280;45234;48.148;17.128;2023-04-07T09:15:30;99952.63;;;7.43
24740;BMP280;45234;48.148;17.128;2023-04-07T09:17:58;99962.69;;;7.22
24740;BMP280;45234;48.148;17.128;2023-04-07T09:20:25;99954.66;;;7.33
24740;BMP280;45234;48.148;17.128;2023-04-07T09:22:53;99952.72;;;7.27
24740;BMP280;45234;48.148;17.128;2023-04-07T09:25:28;99956.75;;;7.52
24740;BMP280;45234;48.148;17.128;2023-04-07T09:28:00;99948.47;;;7.65
24740;BMP280;45234;48.148;17.128;2023-04-07T09:30:29;99952.41;;;7.53
24740;BMP280;45234;48.148;17.128;2023-04-07T09:32:59;99951.47;;;7.69
24740;BMP280;45234;48.148;17.128;2023-04-07T09:35:26;99953.28;;;7.68
24740;BMP280;45234;48.148;17.128;2023-04-07T09:38:08;99949.66;;;7.92
24740;BMP280;45234;48.148;17.128;2023-04-07T09:40:36;99948.94;;;8.21
24740;BMP280;45234;48.148;17.128;2023-04-07T09:43:05;99953.00;;;8.15
24740;BMP280;45234;48.148;17.128;2023-04-07T09:45:32;99947.66;;;8.02
24740;BMP280;45234;48.148;17.128;2023-04-07T09:48:07;99964.94;;;8.16
24740;BMP280;45234;48.148;17.128;2023-04-07T09:50:38;99963.91;;;8.55
24740;BMP280;45234;48.148;17.128;2023-04-07T09:53:07;99959.00;;;8.60
24740;BMP280;45234;48.148;17.128;2023-04-07T09:55:35;99957.13;;;8.54
24740;BMP280;45234;48.148;17.128;2023-04-07T09:58:03;99963.38;;;8.59
24740;BMP280;45234;48.148;17.128;2023-04-07T10:00:32;99959.38;;;8.42
24740;BMP280;45234;48.148;17.128;2023-04-07T10:03:00;99961.41;;;8.47
24740;BMP280;45234;48.148;17.128;2023-04-07T10:05:27;99955.34;;;8.10
24740;BMP280;45234;48.148;17.128;2023-04-07T10:07:54;99956.41;;;8.16
24740;BMP280;45234;48.148;17.128;2023-04-07T10:10:23;99956.44;;;8.31
24740;BMP280;45234;48.148;17.128;2023-04-07T10:12:53;99953.94;;;8.37
24740;BMP280;45234;48.148;17.128;2023-04-07T10:15:25;99954.22;;;8.42
24740;BMP280;45234;48.148;17.128;2023-04-07T10:17:54;99961.31;;;8.70
24740;BMP280;45234;48.148;17.128;2023-04-07T10:20:23;99960.34;;;8.71
24740;BMP280;45234;48.148;17.128;2023-04-07T10:22:51;99961.41;;;8.47
24740;BMP280;45234;48.148;17.128;2023-04-07T10:25:21;99956.00;;;8.42
24740;BMP280;45234;48.148;17.128;2023-04-07T10:28:03;99942.56;;;8.61
24740;BMP280;45234;48.148;17.128;2023-04-07T10:30:32;99956.41;;;8.89
24740;BMP280;45234;48.148;17.128;2023-04-07T10:32:59;99948.94;;;9.16
24740;BMP280;45234;48.148;17.128;2023-04-07T10:35:27;99960.59;;;8.46
24740;BMP280;45234;48.148;17.128;2023-04-07T10:38:10;99955.81;;;7.91
24740;BMP280;45234;48.148;17.128;2023-04-07T10:40:40;99962.78;;;8.05
24740;BMP280;45234;48.148;17.128;2023-04-07T10:43:08;99969.34;;;7.93
24740;BMP280;45234;48.148;17.128;2023-04-07T10:48:18;99965.28;;;8.13
24740;BMP280;45234;48.148;17.128;2023-04-07T10:53:32;99966.00;;;8.07
24740;BMP280;45234;48.148;17.128;2023-04-07T10:56:00;99960.97;;;7.91
24740;BMP280;45234;48.148;17.128;2023-04-07T10:58:30;99961.91;;;7.98
24740;BMP280;45234;48.148;17.128;2023-04-07T11:03:39;99954.06;;;7.46
24740;BMP280;45234;48.148;17.128;2023-04-07T11:06:09;99959.66;;;7.49
24740;BMP280;45234;48.148;17.128;2023-04-07T11:08:45;99965.69;;;7.64
24740;BMP280;45234;48.148;17.128;2023-04-07T11:11:35;99958.91;;;7.41
24740;BMP280;45234;48.148;17.128;2023-04-07T11:14:04;99963.41;;;7.47
24740;BMP280;45234;48.148;17.128;2023-04-07T11:16:36;99950.97;;;7.50
24740;BMP280;45234;48.148;17.128;2023-04-07T11:19:04;99959.50;;;7.51
24740;BMP280;45234;48.148;17.128;2023-04-07T11:21:31;99953.63;;;7.34
24740;BMP280;45234;48.148;17.128;2023-04-07T11:23:57;99948.03;;;7.30
24740;BMP280;45234;48.148;17.128;2023-04-07T11:26:24;99959.81;;;7.33
24740;BMP280;45234;48.148;17.128;2023-04-07T11:28:53;99957.78;;;7.43
24740;BMP280;45234;48.148;17.128;2023-04-07T11:31:30;99961.75;;;7.23
24740;BMP280;45234;48.148;17.128;2023-04-07T11:34:02;99964.63;;;6.97
24740;BMP280;45234;48.148;17.128;2023-04-07T11:36:36;99961.22;;;6.57
24740;BMP280;45234;48.148;17.128;2023-04-07T11:39:03;99969.25;;;6.46
24740;BMP280;45234;48.148;17.128;2023-04-07T11:41:32;99965.06;;;6.70
24740;BMP280;45234;48.148;17.128;2023-04-07T11:44:07;99958.47;;;6.59
24740;BMP280;45234;48.148;17.128;2023-04-07T11:46:35;99959.09;;;6.61
24740;BMP280;45234;48.148;17.128;2023-04-07T11:49:13;99951.13;;;6.31
24740;BMP280;45234;48.148;17.128;2023-04-07T11:51:42;99951.13;;;6.31
24740;BMP280;45234;48.148;17.128;2023-04-07T11:54:09;99954.97;;;6.44
24740;BMP280;45234;48.148;17.128;2023-04-07T11:56:46;99945.63;;;6.51
24740;BMP280;45234;48.148;17.128;2023-04-07T11:59:21;99945.53;;;6.83
24740;BMP280;45234;48.148;17.128;2023-04-07T12:01:49;99937.94;;;7.21
24740;BMP280;45234;48.148;17.128;2023-04-07T12:04:18;99940.75;;;7.57
24740;BMP280;45234;48.148;17.128;2023-04-07T12:06:47;99944.00;;;7.96
24740;BMP280;45234;48.148;17.128;2023-04-07T12:09:33;99940.09;;;8.15
24740;BMP280;45234;48.148;17.128;2023-04-07T12:12:03;99935.84;;;8.67
24740;BMP280;45234;48.148;17.128;2023-04-07T12:14:34;99936.19;;;8.93
24740;BMP280;45234;48.148;17.128;2023-04-07T12:17:02;99940.03;;;9.18
24740;BMP280;45234;48.148;17.128;2023-04-07T12:19:31;99934.06;;;9.39
24740;BMP280;45234;48.148;17.128;2023-04-07T12:21:59;99935.59;;;9.55
24740;BMP280;45234;48.148;17.128;2023-04-07T12:24:26;99936.75;;;9.52
24740;BMP280;45234;48.148;17.128;2023-04-07T12:26:55;99923.69;;;9.60
24740;BMP280;45234;48.148;17.128;2023-04-07T12:29:22;99927.25;;;9.59
24740;BMP280;45234;48.148;17.128;2023-04-07T12:31:48;99928.38;;;9.50
24740;BMP280;45234;48.148;17.128;2023-04-07T12:34:19;99921.19;;;9.46
24740;BMP280;45234;48.148;17.128;2023-04-07T12:36:47;99918.06;;;9.29
24740;BMP280;45234;48.148;17.128;2023-04-07T12:39:14;99923.13;;;9.22
24740;BMP280;45234;48.148;17.128;2023-04-07T12:41:42;99925.00;;;9.28
24740;BMP280;45234;48.148;17.128;2023-04-07T12:44:10;99921.13;;;9.39
24740;BMP280;45234;48.148;17.128;2023-04-07T12:46:37;99919.22;;;9.48
24740;BMP280;45234;48.148;17.128;2023-04-07T12:49:04;99921.00;;;9.26
24740;BMP280;45234;48.148;17.128;2023-04-07T12:51:32;99920.72;;;9.00
24740;BMP280;45234;48.148;17.128;2023-04-07T12:53:59;99918.91;;;8.64
24740;BMP280;45234;48.148;17.128;2023-04-07T12:56:27;99924.25;;;8.77
24740;BMP280;45234;48.148;17.128;2023-04-07T12:58:54;99916.66;;;8.90
24740;BMP280;45234;48.148;17.128;2023-04-07T13:01:21;99931.31;;;9.05
24740;BMP280;45234;48.148;17.128;2023-04-07T13:03:48;99928.44;;;9.14
24740;BMP280;45234;48.148;17.128;2023-04-07T13:06:15;99925.88;;;9.36
24740;BMP280;45234;48.148;17.128;2023-04-07T13:08:43;99924.03;;;9.30
24740;BMP280;45234;48.148;17.128;2023-04-07T13:11:10;99926.97;;;9.26
24740;BMP280;45234;48.148;17.128;2023-04-07T13:13:37;99930.56;;;8.89
24740;BMP280;45234;48.148;17.128;2023-04-07T13:16:04;99927.97;;;8.89
24740;BMP280;45234;48.148;17.128;2023-04-07T13:18:31;99925.66;;;8.80
24740;BMP280;45234;48.148;17.128;2023-04-07T13:20:58;99919.25;;;8.76
24740;BMP280;45234;48.148;17.128;2023-04-07T13:23:48;99927.00;;;8.90
24740;BMP280;45234;48.148;17.128;2023-04-07T13:26:17;99920.00;;;9.06
24740;BMP280;45234;48.148;17.128;2023-04-07T13:28:47;99916.94;;;8.81
24740;BMP280;45234;48.148;17.128;2023-04-07T13:31:14;99919.41;;;8.53
24740;BMP280;45234;48.148;17.128;2023-04-07T13:33:42;99912.59;;;8.67
24740;BMP280;45234;48.148;17.128;2023-04-07T13:36:11;99922.22;;;8.73
24740;BMP280;45234;48.148;17.128;2023-04-07T13:38:37;99917.06;;;8.58
24740;BMP280;45234;48.148;17.128;2023-04-07T13:41:04;99919.53;;;8.66
24740;BMP280;45234;48.148;17.128;2023-04-07T13:43:31;99921.22;;;8.74
24740;BMP280;45234;48.148;17.128;2023-04-07T13:45:58;99921.63;;;8.92
24740;BMP280;45234;48.148;17.128;2023-04-07T13:48:25;99922.47;;;8.92
24740;BMP280;45234;48.148;17.128;2023-04-07T13:50:52;99920.16;;;8.83
24740;BMP280;45234;48.148;17.128;2023-04-07T13:53:18;99923.56;;;8.83
24740;BMP280;45234;48.148;17.128;2023-04-07T13:55:45;99914.75;;;8.63
24740;BMP280;45234;48.148;17.128;2023-04-07T13:58:12;99916.06;;;8.44
24740;BMP280;45234;48.148;17.128;2023-04-07T14:00:40;99918.66;;;8.59
24740;BMP280;45234;48.148;17.128;2023-04-07T14:03:07;99921.34;;;8.36
24740;BMP280;45234;48.148;17.128;2023-04-07T14:05:35;99919.22;;;8.40
24740;BMP280;45234;48.148;17.128;2023-04-07T14:08:02;99921.78;;;8.25
24740;BMP280;45234;48.148;17.128;2023-04-07T14:10:29;99917.22;;;8.12
24740;BMP280;45234;48.148;17.128;2023-04-07T14:12:56;99919.75;;;8.20
24740;BMP280;45234;48.148;17.128;2023-04-07T14:15:24;99917.53;;;8.32
24740;BMP280;45234;48.148;17.128;2023-04-07T14:17:51;99908.94;;;8.46
24740;BMP280;45234;48.148;17.128;2023-04-07T14:20:18;99913.34;;;8.31
24740;BMP280;45234;48.148;17.128;2023-04-07T14:22:45;99923.00;;;8.14
24740;BMP280;45234;48.148;17.128;2023-04-07T14:25:12;99916.19;;;8.21
24740;BMP280;45234;48.148;17.128;2023-04-07T14:27:39;99906.47;;;8.38
24740;BMP280;45234;48.148;17.128;2023-04-07T14:30:07;99918.06;;;8.42
24740;BMP280;45234;48.148;17.128;2023-04-07T14:32:34;99921.59;;;8.56
24740;BMP280;45234;48.148;17.128;2023-04-07T14:35:01;99918.84;;;8.72
24740;BMP280;45234;48.148;17.128;2023-04-07T14:37:29;99917.28;;;8.78
24740;BMP280;45234;48.148;17.128;2023-04-07T14:39:56;99920.97;;;8.54
24740;BMP280;45234;48.148;17.128;2023-04-07T14:42:26;99919.41;;;8.53
24740;BMP280;45234;48.148;17.128;2023-04-07T14:44:55;99911.72;;;8.45
24740;BMP280;45234;48.148;17.128;2023-04-07T14:47:22;99903.59;;;8.48